Time;durP1;ratioP1;P1;durP2;ratioP2;P2;SDS_P1;SDS_P2;PMS_P1;PMS_P2;Temp;Humidity;BMP_temperature;BMP_pressure;BME280_temperature;BME280_humidity;BME280_pressure;Samples;Min_cycle;Max_cycle;Signal;HPM_P1;HPM_P2
2023/03/18 00:00:21;;;;;;;8.13;7.32;;;12.10;99.90;;;;;;5011812;28;20080;-80
2023/03/18 00:02:47;;;;;;;10.48;7.25;;;12.10;99.90;;;;;;4994767;28;20036;-80
2023/03/18 00:05:14;;;;;;;10.82;6.97;;;12.10;99.90;;;;;;4995854;28;20081;-80
2023/03/18 00:07:40;;;;;;;12.13;7.15;;;12.10;99.90;;;;;;4995449;28;20061;-81
2023/03/18 00:10:09;;;;;;;12.35;7.22;;;12.00;99.90;;;;;;5011543;28;20385;-80
2023/03/18 00:12:37;;;;;;;10.57;7.20;;;11.90;99.90;;;;;;5027286;28;20026;-80
2023/03/18 00:15:06;;;;;;;15.18;7.68;;;11.90;99.90;;;;;;5011429;28;20026;-80
2023/03/18 00:17:32;;;;;;;18.17;8.57;;;11.90;99.90;;;;;;4995089;28;20089;-80
2023/03/18 00:20:04;;;;;;;15.40;10.15;;;11.80;99.90;;;;;;4971926;28;20057;-81
2023/03/18 00:22:36;;;;;;;14.27;8.63;;;11.80;99.90;;;;;;4988042;28;20089;-81
2023/03/18 00:25:04;;;;;;;12.50;7.97;;;11.90;99.90;;;;;;4986757;28;20022;-81
2023/03/18 00:27:30;;;;;;;12.57;7.65;;;11.90;99.90;;;;;;5010118;28;20041;-82
2023/03/18 00:29:57;;;;;;;10.93;7.45;;;11.90;99.90;;;;;;4994643;28;20026;-82
2023/03/18 00:32:26;;;;;;;14.05;7.13;;;11.90;99.90;;;;;;5009842;28;20461;-82
2023/03/18 00:34:53;;;;;;;10.82;7.80;;;12.00;99.90;;;;;;5010308;28;20018;-82
2023/03/18 00:37:29;;;;;;;10.85;8.10;;;12.00;99.90;;;;;;5026952;28;20129;-82
2023/03/18 00:40:09;;;;;;;10.90;5.30;;;12.10;99.90;;;;;;5009276;28;20030;-82
2023/03/18 00:42:46;;;;;;;7.80;6.25;;;12.20;99.90;;;;;;5009664;28;20084;-82
2023/03/18 00:45:14;;;;;;;9.15;7.00;;;12.20;99.90;;;;;;4994791;28;20021;-82
2023/03/18 00:47:41;;;;;;;12.13;7.13;;;12.20;99.90;;;;;;5012530;28;20381;-82
2023/03/18 00:50:09;;;;;;;13.10;7.35;;;12.10;99.90;;;;;;5011797;28;20392;-81
2023/03/18 00:52:36;;;;;;;9.50;7.18;;;12.10;99.90;;;;;;5027495;28;20026;-82
2023/03/18 00:55:03;;;;;;;12.35;7.68;;;12.00;99.90;;;;;;5010861;28;20022;-84
2023/03/18 00:57:29;;;;;;;9.18;7.35;;;11.80;99.90;;;;;;5010923;28;20049;-82
2023/03/18 00:59:58;;;;;;;8.57;7.78;;;11.80;99.90;;;;;;5009747;28;20089;-82
2023/03/18 01:02:24;;;;;;;13.40;8.13;;;11.70;99.90;;;;;;5009365;28;20057;-82
2023/03/18 01:04:51;;;;;;;10.02;8.43;;;11.60;99.90;;;;;;4994178;28;20064;-82
2023/03/18 01:07:17;;;;;;;11.55;8.25;;;11.60;99.90;;;;;;4994401;28;20037;-82
2023/03/18 01:09:43;;;;;;;10.80;9.00;;;11.50;99.90;;;;;;4994922;28;20044;-83
2023/03/18 01:12:10;;;;;;;9.98;8.32;;;11.50;99.90;;;;;;4992535;28;20030;-83
2023/03/18 01:14:38;;;;;;;12.52;7.55;;;11.50;99.90;;;;;;5013068;28;20026;-83
2023/03/18 01:17:05;;;;;;;15.45;9.88;;;11.50;99.90;;;;;;4979613;28;20042;-83
2023/03/18 01:19:31;;;;;;;12.18;7.88;;;11.40;99.90;;;;;;4976795;28;20081;-83
2023/03/18 01:21:57;;;;;;;9.95;8.50;;;11.30;99.90;;;;;;4960470;28;20038;-82
2023/03/18 01:24:23;;;;;;;9.98;9.00;;;11.30;99.90;;;;;;5008816;28;20041;-82
2023/03/18 01:26:49;;;;;;;13.77;9.90;;;11.30;99.90;;;;;;4994138;28;20038;-82
2023/03/18 01:29:16;;;;;;;17.00;10.55;;;11.30;99.90;;;;;;5010253;28;20030;-83
2023/03/18 01:31:42;;;;;;;9.52;8.40;;;11.20;99.90;;;;;;5005646;28;20105;-83
2023/03/18 01:34:15;;;;;;;13.50;9.05;;;11.20;99.90;;;;;;4992433;28;20026;-82
2023/03/18 01:36:48;;;;;;;9.95;8.65;;;11.10;99.90;;;;;;5010364;28;20145;-83
2023/03/18 01:39:16;;;;;;;15.82;9.60;;;11.20;99.90;;;;;;5010639;28;20547;-82
2023/03/18 01:41:43;;;;;;;13.25;10.73;;;11.20;99.90;;;;;;5011016;28;20118;-82
2023/03/18 01:44:19;;;;;;;14.30;10.80;;;11.10;99.90;;;;;;5008471;28;20034;-83
2023/03/18 01:46:48;;;;;;;13.95;9.30;;;11.00;99.90;;;;;;5010318;28;20437;-83
2023/03/18 01:49:38;;;;;;;15.60;10.80;;;11.10;99.90;;;;;;4995122;28;20144;-83
2023/03/18 01:52:11;;;;;;;36.03;11.85;;;11.00;99.90;;;;;;5013138;28;20385;-82
2023/03/18 01:54:59;;;;;;;14.57;8.35;;;11.00;99.90;;;;;;4997730;28;20030;-83
2023/03/18 01:57:26;;;;;;;13.25;9.68;;;10.90;99.90;;;;;;5013810;28;20053;-82
2023/03/18 01:59:56;;;;;;;12.98;10.52;;;10.80;99.90;;;;;;4997771;28;20034;-82
2023/03/18 02:02:23;;;;;;;21.67;13.13;;;10.90;99.90;;;;;;4996216;28;20069;-82
2023/03/18 02:04:55;;;;;;;14.85;11.18;;;10.90;99.90;;;;;;5014008;28;20037;-83
2023/03/18 02:07:26;;;;;;;16.98;10.70;;;10.90;99.90;;;;;;5014499;28;20096;-82
2023/03/18 02:09:55;;;;;;;11.68;9.38;;;10.90;99.90;;;;;;5014241;28;20034;-82
2023/03/18 02:12:24;;;;;;;11.40;9.90;;;10.90;99.90;;;;;;4996618;28;20045;-83
2023/03/18 02:14:55;;;;;;;14.90;10.77;;;11.00;99.90;;;;;;4995960;28;20092;-82
2023/03/18 02:17:26;;;;;;;13.85;9.68;;;10.90;99.90;;;;;;5012740;28;20046;-82
2023/03/18 02:20:06;;;;;;;25.25;11.60;;;11.00;99.90;;;;;;5029673;28;20121;-82
2023/03/18 02:22:38;;;;;;;14.35;12.63;;;11.00;99.90;;;;;;5011962;28;20030;-82
2023/03/18 02:25:27;;;;;;;19.98;12.48;;;11.10;99.90;;;;;;4997668;28;20116;-83
2023/03/18 02:28:10;;;;;;;12.45;11.35;;;11.10;99.90;;;;;;4997202;28;20022;-82
2023/03/18 02:30:46;;;;;;;13.63;11.95;;;11.00;99.90;;;;;;5013603;28;20034;-82
2023/03/18 02:33:16;;;;;;;11.27;10.15;;;11.10;99.90;;;;;;5012287;28;20030;-82
2023/03/18 02:35:45;;;;;;;14.15;11.50;;;11.10;99.90;;;;;;4997511;28;20026;-82
2023/03/18 02:38:11;;;;;;;13.45;11.63;;;11.10;99.90;;;;;;4996992;28;20042;-81
2023/03/18 02:40:40;;;;;;;20.58;10.40;;;11.10;99.90;;;;;;5012740;28;20080;-82
2023/03/18 02:43:21;;;;;;;14.35;11.82;;;11.10;99.90;;;;;;4996622;28;20092;-82
2023/03/18 02:46:05;;;;;;;11.68;10.55;;;11.10;99.90;;;;;;4993818;28;20077;-82
2023/03/18 02:48:38;;;;;;;18.73;10.38;;;11.10;99.90;;;;;;4977356;28;20038;-82
2023/03/18 02:51:06;;;;;;;14.30;12.88;;;11.10;99.90;;;;;;4977390;28;20026;-82
2023/03/18 02:53:32;;;;;;;27.10;13.15;;;11.10;99.90;;;;;;4987989;28;20105;-83
2023/03/18 02:55:59;;;;;;;17.35;11.57;;;11.10;99.90;;;;;;4996360;28;20215;-82
2023/03/18 02:58:25;;;;;;;15.10;11.35;;;11.10;99.90;;;;;;4996492;28;20064;-82
2023/03/18 03:00:54;;;;;;;14.90;10.25;;;11.10;99.90;;;;;;5013324;28;20022;-81
2023/03/18 03:03:21;;;;;;;12.10;10.77;;;11.10;99.90;;;;;;4995586;28;20073;-83
2023/03/18 03:05:47;;;;;;;13.80;11.07;;;11.10;99.90;;;;;;4996614;28;20096;-82
2023/03/18 03:08:14;;;;;;;13.90;11.60;;;11.10;99.90;;;;;;4991203;28;20072;-83
2023/03/18 03:10:43;;;;;;;11.30;9.05;;;11.10;99.90;;;;;;4985168;28;20032;-82
2023/03/18 03:13:10;;;;;;;12.98;11.68;;;11.10;99.90;;;;;;4994753;28;20033;-82
2023/03/18 03:15:38;;;;;;;17.95;11.63;;;11.10;99.90;;;;;;5009551;28;20054;-83
2023/03/18 03:18:04;;;;;;;19.23;9.63;;;11.10;99.90;;;;;;4976412;28;20515;-80
2023/03/18 03:20:34;;;;;;;13.85;11.20;;;11.00;99.90;;;;;;4998545;28;20030;-82
2023/03/18 03:23:02;;;;;;;14.38;11.15;;;11.00;99.90;;;;;;4988941;28;20022;-82
2023/03/18 03:25:28;;;;;;;14.52;10.02;;;11.00;99.90;;;;;;4991492;28;20427;-82
2023/03/18 03:27:55;;;;;;;11.30;9.55;;;10.90;99.90;;;;;;4976400;28;20034;-82
2023/03/18 03:30:22;;;;;;;11.43;9.55;;;10.90;99.90;;;;;;4992833;28;20037;-81
2023/03/18 03:32:48;;;;;;;17.48;11.23;;;10.80;99.90;;;;;;4981375;28;20157;-81
2023/03/18 03:35:17;;;;;;;13.15;11.77;;;10.80;99.90;;;;;;4996312;28;20489;-82
2023/03/18 03:37:43;;;;;;;13.77;11.48;;;10.80;99.90;;;;;;4996167;28;20042;-82
2023/03/18 03:40:12;;;;;;;15.38;11.32;;;10.80;99.90;;;;;;5011135;28;20806;-82
2023/03/18 03:42:39;;;;;;;13.18;10.80;;;10.80;99.90;;;;;;5009939;28;20026;-82
2023/03/18 03:45:06;;;;;;;13.95;11.38;;;10.70;99.90;;;;;;4995540;28;20022;-81
2023/03/18 03:47:32;;;;;;;15.85;12.25;;;10.70;99.90;;;;;;5012131;28;20121;-81
2023/03/18 03:49:59;;;;;;;14.90;12.30;;;10.70;99.90;;;;;;4996051;28;20033;-82
2023/03/18 03:52:24;;;;;;;12.95;10.15;;;10.70;99.90;;;;;;5010498;28;20010;-82
2023/03/18 03:54:50;;;;;;;12.80;11.18;;;10.70;99.90;;;;;;5008499;28;20022;-82
2023/03/18 03:57:17;;;;;;;16.52;14.82;;;10.70;99.90;;;;;;4960094;28;20144;-82
2023/03/18 03:59:43;;;;;;;13.43;9.90;;;10.70;99.90;;;;;;4975868;28;20538;-82
2023/03/18 04:02:15;;;;;;;15.15;12.27;;;10.80;99.90;;;;;;4977674;28;20041;-82
2023/03/18 04:04:42;;;;;;;13.57;10.95;;;10.80;99.90;;;;;;4995590;28;20076;-81
2023/03/18 04:07:15;;;;;;;19.95;13.48;;;10.80;99.90;;;;;;4996490;28;20434;-82
2023/03/18 04:09:41;;;;;;;15.70;11.85;;;10.80;99.90;;;;;;4994147;28;20025;-82
2023/03/18 04:12:08;;;;;;;17.27;13.70;;;10.80;99.90;;;;;;4992818;28;20026;-82
2023/03/18 04:14:34;;;;;;;20.30;12.40;;;10.80;99.90;;;;;;5011599;28;20036;-82
2023/03/18 04:17:01;;;;;;;12.98;11.68;;;10.80;99.90;;;;;;4995889;28;20038;-82
2023/03/18 04:19:28;;;;;;;13.35;11.95;;;10.80;99.90;;;;;;4975683;28;20061;-83
2023/03/18 04:21:55;;;;;;;17.38;12.07;;;10.90;99.90;;;;;;4992292;28;20030;-81
2023/03/18 04:24:22;;;;;;;13.90;10.48;;;10.80;99.90;;;;;;4993608;28;20022;-82
2023/03/18 04:26:49;;;;;;;19.10;11.05;;;10.80;99.90;;;;;;5006498;28;20042;-82
2023/03/18 04:29:15;;;;;;;13.75;11.32;;;10.80;99.90;;;;;;4975482;28;20019;-82
2023/03/18 04:31:41;;;;;;;18.35;12.75;;;10.70;99.90;;;;;;4994877;28;20120;-82
2023/03/18 04:34:07;;;;;;;19.02;13.18;;;10.80;99.90;;;;;;4976830;28;20037;-82
2023/03/18 04:36:33;;;;;;;16.60;11.65;;;10.80;99.90;;;;;;4975377;28;20030;-81
2023/03/18 04:38:59;;;;;;;16.95;12.75;;;10.80;99.90;;;;;;4974869;28;20034;-81
2023/03/18 04:41:25;;;;;;;15.63;12.20;;;10.80;99.90;;;;;;4984084;28;20176;-83
2023/03/18 04:43:54;;;;;;;16.10;11.63;;;10.80;99.90;;;;;;4993775;28;20088;-82
2023/03/18 04:46:28;;;;;;;;;;;10.80;99.90;;;;;;4995605;28;20028;-82
2023/03/18 04:48:57;;;;;;;16.42;9.55;;;10.80;99.90;;;;;;4995171;28;19913;-81
2023/03/18 04:51:24;;;;;;;16.83;12.65;;;10.70;99.90;;;;;;5012618;28;20022;-82
2023/03/18 04:53:50;;;;;;;14.52;12.93;;;10.70;99.90;;;;;;4993264;28;20161;-82
2023/03/18 04:56:16;;;;;;;18.45;11.52;;;10.60;99.90;;;;;;4970362;28;20490;-82
2023/03/18 04:58:47;;;;;;;17.23;13.90;;;10.60;99.90;;;;;;4991519;28;20034;-81
2023/03/18 05:01:18;;;;;;;21.35;13.88;;;10.50;99.90;;;;;;4975990;28;20121;-81
2023/03/18 05:03:44;;;;;;;16.60;12.85;;;10.50;99.90;;;;;;4987640;28;20124;-82
2023/03/18 05:06:32;;;;;;;14.55;13.05;;;10.60;99.90;;;;;;5010116;28;20040;-82
2023/03/18 05:09:12;;;;;;;15.45;11.35;;;10.60;99.90;;;;;;4996414;28;20129;-82
2023/03/18 05:11:37;;;;;;;16.98;11.68;;;10.60;99.90;;;;;;4994527;28;20380;-82
2023/03/18 05:14:27;;;;;;;17.50;12.15;;;10.60;99.90;;;;;;4996374;28;20044;-82
2023/03/18 05:16:54;;;;;;;23.85;13.38;;;10.60;99.90;;;;;;4994276;28;20445;-82
2023/03/18 05:19:20;;;;;;;17.45;12.75;;;10.70;99.90;;;;;;4994613;28;20034;-82
2023/03/18 05:21:55;;;;;;;13.57;11.80;;;10.60;99.90;;;;;;4995711;28;20370;-81
2023/03/18 05:24:21;;;;;;;14.18;11.07;;;10.70;99.90;;;;;;5010359;28;20048;-81
2023/03/18 05:26:48;;;;;;;12.48;10.43;;;10.60;99.90;;;;;;5015130;28;20170;-83
2023/03/18 05:29:16;;;;;;;16.10;13.20;;;10.60;99.90;;;;;;5003984;28;20373;-82
2023/03/18 05:31:54;;;;;;;15.52;11.88;;;10.60;99.90;;;;;;5020325;28;20038;-82
2023/03/18 05:34:21;;;;;;;10.93;9.90;;;10.50;99.90;;;;;;4998060;28;20433;-82
2023/03/18 05:36:47;;;;;;;14.10;9.73;;;10.50;99.90;;;;;;5014771;28;20072;-82
2023/03/18 05:39:14;;;;;;;16.63;12.30;;;10.40;99.90;;;;;;4998337;28;20037;-82
2023/03/18 05:41:40;;;;;;;18.42;12.73;;;10.40;99.90;;;;;;5014804;28;20033;-82
2023/03/18 05:44:09;;;;;;;12.93;11.07;;;10.30;99.90;;;;;;4997240;28;20034;-81
2023/03/18 05:46:38;;;;;;;18.20;11.75;;;10.30;99.90;;;;;;4998386;28;20045;-82
2023/03/18 05:49:10;;;;;;;22.13;11.73;;;10.30;99.90;;;;;;4999301;28;20388;-81
2023/03/18 05:51:56;;;;;;;14.52;12.82;;;10.30;99.90;;;;;;5015192;28;20500;-81
2023/03/18 05:54:35;;;;;;;19.27;12.60;;;10.30;99.90;;;;;;4999952;28;20101;-81
2023/03/18 05:57:02;;;;;;;12.52;11.23;;;10.20;99.90;;;;;;5013975;28;20053;-81
2023/03/18 05:59:29;;;;;;;20.08;11.57;;;10.30;99.90;;;;;;4965829;28;20030;-81
2023/03/18 06:01:57;;;;;;;20.10;12.90;;;10.20;99.90;;;;;;5014683;28;20461;-82
2023/03/18 06:04:25;;;;;;;16.38;13.13;;;10.20;99.90;;;;;;4993620;28;20041;-81
2023/03/18 06:06:51;;;;;;;16.95;13.70;;;10.10;99.90;;;;;;4977804;28;20037;-81
2023/03/18 06:09:18;;;;;;;15.88;12.77;;;10.00;99.90;;;;;;4998876;28;20085;-80
2023/03/18 06:11:45;;;;;;;19.35;12.73;;;10.20;99.90;;;;;;4990790;28;20030;-82
2023/03/18 06:14:11;;;;;;;12.82;11.63;;;10.00;99.90;;;;;;5009014;28;20037;-86
2023/03/18 06:16:38;;;;;;;17.00;13.38;;;10.10;99.90;;;;;;4992961;28;20043;-83
2023/03/18 06:19:05;;;;;;;14.77;13.13;;;10.10;99.90;;;;;;4992076;28;20498;-84
2023/03/18 06:21:31;;;;;;;15.82;13.70;;;10.20;99.90;;;;;;5013873;28;20022;-83
2023/03/18 06:23:58;;;;;;;13.98;10.65;;;10.20;99.90;;;;;;4995334;28;20018;-80
2023/03/18 06:26:25;;;;;;;13.52;12.27;;;10.30;99.90;;;;;;4969364;28;20043;-81
2023/03/18 06:28:52;;;;;;;17.45;12.20;;;10.30;99.90;;;;;;4956307;28;20163;-79
2023/03/18 06:31:18;;;;;;;12.90;10.25;;;10.40;99.90;;;;;;4940804;28;20038;-81
2023/03/18 06:33:45;;;;;;;17.15;11.57;;;10.40;99.90;;;;;;4956659;28;20047;-80
2023/03/18 06:36:15;;;;;;;13.40;11.87;;;10.50;99.90;;;;;;4950907;28;20031;-82
2023/03/18 06:38:44;;;;;;;12.57;11.27;;;10.50;99.90;;;;;;4955551;28;20320;-83
2023/03/18 06:41:12;;;;;;;15.18;13.57;;;10.60;99.90;;;;;;4956015;28;20118;-81
2023/03/18 06:43:46;;;;;;;20.85;12.77;;;10.80;99.90;;;;;;4924769;28;20085;-81
2023/03/18 06:46:13;;;;;;;13.20;11.73;;;11.90;99.90;;;;;;4956028;28;20069;-81
2023/03/18 06:48:42;;;;;;;15.00;12.50;;;12.80;99.90;;;;;;4955403;28;20027;-82
2023/03/18 06:51:11;;;;;;;12.75;11.38;;;13.30;99.90;;;;;;4963072;28;20447;-84
2023/03/18 06:53:40;;;;;;;11.17;9.83;;;;;;;;;;4952076;28;20394;-85
2023/03/18 06:56:08;;;;;;;11.40;8.70;;;13.80;99.90;;;;;;4936598;29;20354;-84
2023/03/18 06:58:45;;;;;;;8.73;7.93;;;14.30;99.90;;;;;;5013289;28;20450;-83
2023/03/18 07:01:11;;;;;;;10.70;7.43;;;14.20;99.90;;;;;;4996735;28;20121;-85
2023/03/18 07:03:43;;;;;;;12.63;8.82;;;14.20;99.90;;;;;;4990864;28;20057;-84
2023/03/18 07:06:11;;;;;;;10.27;9.18;;;15.10;99.90;;;;;;5003848;28;20061;-84
2023/03/18 07:08:39;;;;;;;8.95;7.53;;;15.80;99.90;;;;;;4991773;28;20030;-82
2023/03/18 07:11:06;;;;;;;13.68;10.00;;;15.20;99.90;;;;;;4996458;28;20053;-81
2023/03/18 07:13:34;;;;;;;10.27;7.80;;;15.40;99.90;;;;;;4993450;28;20034;-81
2023/03/18 07:16:21;;;;;;;11.98;9.48;;;15.00;99.90;;;;;;5000980;28;20027;-85
2023/03/18 07:18:46;;;;;;;8.73;7.93;;;14.90;99.90;;;;;;5010586;28;20041;-86
2023/03/18 07:21:12;;;;;;;9.65;6.75;;;14.60;99.90;;;;;;5009786;28;20038;-86
2023/03/18 07:23:39;;;;;;;7.80;6.97;;;15.40;99.90;;;;;;4992850;28;20492;-85
2023/03/18 07:26:06;;;;;;;9.55;7.65;;;16.20;99.90;;;;;;4999515;28;20072;-86
2023/03/18 07:28:35;;;;;;;6.30;5.70;;;16.50;99.90;;;;;;4996663;28;20044;-85
2023/03/18 07:31:00;;;;;;;7.80;7.03;;;16.00;99.90;;;;;;4995910;28;20026;-85
2023/03/18 07:33:27;;;;;;;8.38;6.28;;;16.20;99.90;;;;;;5015808;28;20029;-85
2023/03/18 07:35:54;;;;;;;13.07;6.75;;;16.10;99.90;;;;;;4999060;28;20077;-84
2023/03/18 07:38:20;;;;;;;9.68;5.45;;;16.40;99.90;;;;;;5014176;28;20037;-86
2023/03/18 07:40:47;;;;;;;6.80;6.03;;;16.60;99.90;;;;;;5009615;28;20104;-85
2023/03/18 07:43:13;;;;;;;6.53;5.93;;;17.00;99.90;;;;;;4988525;28;20034;-85
2023/03/18 07:45:39;;;;;;;9.00;7.18;;;16.80;99.90;;;;;;4993806;28;20017;-85
2023/03/18 07:48:05;;;;;;;7.88;5.82;;;17.10;99.90;;;;;;5007540;28;20023;-85
2023/03/18 07:50:31;;;;;;;10.45;7.03;;;16.50;99.90;;;;;;5005093;28;20039;-82
2023/03/18 07:52:57;;;;;;;6.90;6.13;;;16.50;99.90;;;;;;4990913;28;20030;-86
2023/03/18 07:55:23;;;;;;;6.72;6.10;;;15.60;99.90;;;;;;5009172;28;20019;-83
2023/03/18 07:57:49;;;;;;;10.02;7.78;;;15.60;99.90;;;;;;5004488;28;20042;-84
2023/03/18 08:00:17;;;;;;;17.45;5.85;;;16.70;99.90;;;;;;5008762;28;20022;-85
2023/03/18 08:02:43;;;;;;;8.48;6.70;;;;;;;;;;4988210;28;20480;-84
2023/03/18 08:05:10;;;;;;;6.75;5.57;;;20.20;99.90;;;;;;5009497;28;20036;-84
2023/03/18 08:07:37;;;;;;;5.88;5.38;;;;;;;;;;5001119;28;20026;-82
2023/03/18 08:10:03;;;;;;;5.43;4.93;;;17.80;99.90;;;;;;4990161;28;20033;-84
2023/03/18 08:12:29;;;;;;;5.82;5.32;;;17.80;99.90;;;;;;5005647;28;20569;-82
2023/03/18 08:14:55;;;;;;;7.78;6.10;;;19.60;99.90;;;;;;4989914;28;20117;-84
2023/03/18 08:17:21;;;;;;;5.22;4.82;;;23.30;99.90;;;;;;4990929;28;20069;-83
2023/03/18 08:19:47;;;;;;;6.43;4.72;;;23.30;99.60;;;;;;4997823;28;20026;-82
2023/03/18 08:22:14;;;;;;;4.95;4.55;;;23.90;97.50;;;;;;4979218;28;20065;-84
2023/03/18 08:24:41;;;;;;;6.25;4.85;;;24.00;98.50;;;;;;5000322;28;20735;-85
2023/03/18 08:27:08;;;;;;;6.82;4.07;;;25.20;97.40;;;;;;5006807;28;20362;-83
2023/03/18 08:29:34;;;;;;;5.53;4.20;;;24.80;93.40;;;;;;4986006;28;20018;-84
2023/03/18 08:32:00;;;;;;;4.63;4.13;;;24.40;97.00;;;;;;4990583;28;20022;-82
2023/03/18 08:34:27;;;;;;;5.03;4.20;;;24.70;93.70;;;;;;4984675;28;20026;-82
2023/03/18 08:36:53;;;;;;;4.28;3.88;;;25.80;92.20;;;;;;5009647;28;20042;-83
2023/03/18 08:39:19;;;;;;;5.68;5.05;;;24.80;92.90;;;;;;5011916;28;20022;-83
2023/03/18 08:41:44;;;;;;;5.43;3.80;;;24.90;92.80;;;;;;5011007;28;20021;-83
2023/03/18 08:44:10;;;;;;;3.85;3.55;;;27.20;90.90;;;;;;5010707;28;20469;-84
2023/03/18 08:46:39;;;;;;;4.43;3.08;;;30.00;85.90;;;;;;5010542;28;20022;-84
2023/03/18 08:49:06;;;;;;;6.32;3.80;;;27.70;83.80;;;;;;5010991;28;20029;-82
2023/03/18 08:51:33;;;;;;;5.95;4.25;;;24.70;87.40;;;;;;4994225;28;20029;-83
2023/03/18 08:53:59;;;;;;;4.68;3.10;;;23.40;90.30;;;;;;4990497;28;20026;-82
2023/03/18 08:56:26;;;;;;;3.78;3.03;;;23.30;91.30;;;;;;5010837;28;20042;-82
2023/03/18 08:58:52;;;;;;;3.90;3.45;;;24.80;90.50;;;;;;4998566;28;20026;-82
2023/03/18 09:01:20;;;;;;;4.00;3.53;;;27.20;87.50;;;;;;4991117;28;20081;-81
2023/03/18 09:03:47;;;;;;;4.75;3.97;;;27.90;84.50;;;;;;4999610;28;20354;-82
2023/03/18 09:06:14;;;;;;;5.43;2.60;;;26.80;85.50;;;;;;4991482;28;20040;-81
2023/03/18 09:08:40;;;;;;;3.50;3.25;;;27.30;83.20;;;;;;5002641;28;20045;-82
2023/03/18 09:11:09;;;;;;;5.18;3.40;;;27.40;82.60;;;;;;4990409;28;20254;-81
2023/03/18 09:13:35;;;;;;;3.42;2.78;;;28.20;87.70;;;;;;4985500;28;20018;-84
2023/03/18 09:16:01;;;;;;;6.65;2.97;;;27.80;86.40;;;;;;4996237;28;20041;-82
2023/03/18 09:18:28;;;;;;;7.13;3.63;;;27.60;88.10;;;;;;4989828;28;20052;-83
2023/03/18 09:20:54;;;;;;;3.72;2.70;;;27.70;81.20;;;;;;5003939;28;20057;-84
2023/03/18 09:23:20;;;;;;;3.80;2.47;;;28.50;80.10;;;;;;4992022;28;20034;-83
2023/03/18 09:25:47;;;;;;;6.30;4.40;;;29.40;76.70;;;;;;4990117;28;20022;-83
2023/03/18 09:28:13;;;;;;;3.97;3.08;;;29.00;76.40;;;;;;4997206;28;20381;-83
2023/03/18 09:30:39;;;;;;;3.47;2.30;;;27.50;77.20;;;;;;5006891;28;20034;-83
2023/03/18 09:33:06;;;;;;;2.70;2.38;;;27.30;78.50;;;;;;4994153;28;20030;-87
2023/03/18 09:35:33;;;;;;;4.57;2.80;;;28.40;76.10;;;;;;4990231;28;20018;-86
2023/03/18 09:38:00;;;;;;;4.15;2.30;;;29.00;75.10;;;;;;5010333;28;20042;-87
2023/03/18 09:40:29;;;;;;;2.65;2.45;;;29.60;76.20;;;;;;5005404;28;20030;-86
2023/03/18 09:43:01;;;;;;;4.25;2.30;;;30.50;72.90;;;;;;4990046;28;20014;-87
2023/03/18 09:45:37;;;;;;;4.88;2.65;;;31.00;71.40;;;;;;5007117;28;20042;-88
2023/03/18 09:48:36;;;;;;;3.80;2.63;;;30.30;74.30;;;;;;5005093;28;20050;-86
2023/03/18 09:51:17;;;;;;;3.28;3.03;;;29.20;74.40;;;;;;4981197;28;20033;-86
2023/03/18 09:54:11;;;;;;;2.65;2.45;;;29.50;72.10;;;;;;4993267;28;20042;-86
2023/03/18 09:56:38;;;;;;;7.28;3.03;;;30.50;70.30;;;;;;4968012;28;20456;-86
2023/03/18 09:59:43;;;;;;;6.07;2.08;;;27.00;75.10;;;;;;4989031;28;20033;-86
2023/03/18 10:02:25;;;;;;;3.15;2.47;;;27.70;73.50;;;;;;4991827;28;20501;-84
2023/03/18 10:04:59;;;;;;;4.55;1.80;;;26.50;77.00;;;;;;4997166;28;20030;-85
2023/03/18 10:07:32;;;;;;;1.77;1.67;;;27.40;76.30;;;;;;4992160;28;20117;-85
2023/03/18 10:10:04;;;;;;;1.27;1.23;;;27.00;73.70;;;;;;5002772;28;20057;-86
2023/03/18 10:12:36;;;;;;;2.83;1.95;;;27.80;71.60;;;;;;4989206;28;20492;-86
2023/03/18 10:15:03;;;;;;;2.17;1.40;;;28.00;74.60;;;;;;5011202;28;20105;-85
2023/03/18 10:17:44;;;;;;;2.30;1.60;;;29.30;69.90;;;;;;5007326;28;20072;-88
2023/03/18 10:20:14;;;;;;;2.47;1.63;;;28.70;69.50;;;;;;5004715;28;20042;-86
2023/03/18 10:22:47;;;;;;;1.98;1.17;;;29.20;70.60;;;;;;5010431;28;20041;-86
2023/03/18 10:25:25;;;;;;;2.78;1.80;;;30.20;69.10;;;;;;5008919;28;20044;-86
2023/03/18 10:27:59;;;;;;;3.28;1.63;;;30.70;69.90;;;;;;4995045;28;20034;-88
2023/03/18 10:31:19;;;;;;;1.52;1.42;;;29.70;68.40;;;;;;4993154;28;20032;-87
2023/03/18 10:34:07;;;;;;;1.63;1.52;;;28.50;70.20;;;;;;4967929;28;20079;-87
2023/03/18 10:36:42;;;;;;;2.33;1.88;;;28.00;71.90;;;;;;5011206;28;20034;-85
2023/03/18 10:39:14;;;;;;;2.72;2.13;;;28.30;71.10;;;;;;4990181;28;20041;-86
2023/03/18 10:41:42;;;;;;;2.50;1.75;;;26.60;71.00;;;;;;5004346;28;20046;-85
2023/03/18 10:44:31;;;;;;;3.55;1.77;;;23.60;76.40;;;;;;4985066;28;20026;-84
2023/03/18 10:47:02;;;;;;;2.30;1.83;;;24.10;77.50;;;;;;4974473;28;20125;-84
2023/03/18 10:49:32;;;;;;;4.40;2.45;;;23.20;78.90;;;;;;4975894;28;20034;-84
2023/03/18 10:52:12;;;;;;;4.03;2.35;;;21.80;80.40;;;;;;4984940;28;20532;-84
2023/03/18 10:54:51;;;;;;;1.83;1.73;;;21.10;83.60;;;;;;5010109;28;20092;-84
2023/03/18 10:57:20;;;;;;;2.40;2.17;;;21.10;84.50;;;;;;4995354;28;20553;-84
2023/03/18 10:59:46;;;;;;;2.88;1.60;;;20.20;86.30;;;;;;5010718;28;20441;-83
2023/03/18 11:02:33;;;;;;;1.35;1.17;;;19.90;87.00;;;;;;5011290;28;20428;-83
2023/03/18 11:05:03;;;;;;;4.85;1.42;;;19.70;87.90;;;;;;4990407;28;20030;-84
2023/03/18 11:07:30;;;;;;;;;;;19.00;90.90;;;;;;5009324;28;20064;-87
2023/03/18 11:10:16;;;;;;;3.00;2.67;;;19.20;90.40;;;;;;4995152;28;20257;-86
2023/03/18 11:12:43;;;;;;;3.35;1.88;;;19.50;90.20;;;;;;4993575;28;20022;-85
2023/03/18 11:15:11;;;;;;;2.28;1.73;;;20.20;93.30;;;;;;4981573;28;20034;-84
2023/03/18 11:17:39;;;;;;;2.10;1.90;;;20.10;90.30;;;;;;5010047;28;20041;-84
2023/03/18 11:20:10;;;;;;;2.47;1.77;;;20.40;88.10;;;;;;4991892;28;20133;-86
2023/03/18 11:22:37;;;;;;;2.42;2.17;;;20.70;89.80;;;;;;4994160;28;20446;-86
2023/03/18 11:25:12;;;;;;;3.83;2.03;;;20.70;88.00;;;;;;5010564;28;20055;-85
2023/03/18 11:27:41;;;;;;;2.05;1.95;;;21.00;87.40;;;;;;5011745;28;20477;-84
2023/03/18 11:30:27;;;;;;;4.97;1.58;;;19.50;89.70;;;;;;4994034;28;20397;-85
2023/03/18 11:33:02;;;;;;;2.22;1.92;;;19.60;90.40;;;;;;5007018;28;20040;-85
2023/03/18 11:35:39;;;;;;;1.70;1.60;;;19.70;90.10;;;;;;5007823;28;20030;-85
2023/03/18 11:38:12;;;;;;;3.35;1.88;;;19.50;93.60;;;;;;5009210;28;20041;-82
2023/03/18 11:40:39;;;;;;;0.98;0.98;;;19.90;93.50;;;;;;4992213;28;20037;-86
2023/03/18 11:43:18;;;;;;;2.22;1.48;;;19.70;90.20;;;;;;4987926;28;20041;-86
2023/03/18 11:45:51;;;;;;;1.65;1.48;;;19.30;95.20;;;;;;5009204;28;20033;-84
2023/03/18 11:48:29;;;;;;;1.73;1.25;;;19.30;92.00;;;;;;5007843;28;20065;-85
2023/03/18 11:51:30;;;;;;;2.58;2.38;;;19.20;92.10;;;;;;5021873;28;20374;-85
2023/03/18 11:54:15;;;;;;;4.70;2.35;;;18.60;92.60;;;;;;4993117;28;20022;-84
2023/03/18 11:56:59;;;;;;;1.98;1.88;;;18.60;94.10;;;;;;5006244;28;20029;-84
2023/03/18 11:59:48;;;;;;;3.05;1.65;;;18.50;94.50;;;;;;5005144;28;20097;-84
2023/03/18 12:02:23;;;;;;;2.25;1.67;;;17.90;94.50;;;;;;4972527;28;20562;-83
2023/03/18 12:04:58;;;;;;;1.10;1.05;;;17.50;95.60;;;;;;5000940;28;20110;-84
2023/03/18 12:07:35;;;;;;;1.52;1.02;;;17.30;95.80;;;;;;4991470;28;20128;-83
2023/03/18 12:10:22;;;;;;;1.05;1.05;;;17.10;96.00;;;;;;4998273;28;20045;-82
2023/03/18 12:13:24;;;;;;;6.75;1.30;;;17.00;97.10;;;;;;5005690;28;20034;-83
2023/03/18 12:16:13;;;;;;;2.58;1.58;;;16.70;97.20;;;;;;5003182;28;20556;-82
2023/03/18 12:19:01;;;;;;;1.58;1.48;;;16.50;97.40;;;;;;4992049;28;20050;-82
2023/03/18 12:21:54;;;;;;;1.63;1.40;;;16.20;99.20;;;;;;4978598;28;20065;-82
2023/03/18 12:24:35;;;;;;;2.25;1.10;;;15.60;99.90;;;;;;4988031;28;20038;-83
2023/03/18 12:27:33;;;;;;;2.25;2.00;;;15.30;99.90;;;;;;4975113;28;20465;-82
2023/03/18 12:30:10;;;;;;;6.28;2.78;;;15.10;99.90;;;;;;5006723;28;20547;-82
2023/03/18 12:32:55;;;;;;;3.67;1.50;;;15.20;99.90;;;;;;4991053;28;20038;-83
2023/03/18 12:35:44;;;;;;;2.63;2.20;;;15.50;99.90;;;;;;4987582;28;20129;-84
2023/03/18 12:38:25;;;;;;;3.83;2.38;;;15.70;99.90;;;;;;5010597;28;20041;-83
2023/03/18 12:41:09;;;;;;;2.05;1.77;;;15.70;99.90;;;;;;5011170;28;20121;-82
2023/03/18 12:43:36;;;;;;;2.45;1.65;;;15.70;99.90;;;;;;5009517;28;20026;-83
2023/03/18 12:46:32;;;;;;;1.05;0.98;;;15.70;99.90;;;;;;5001428;28;20386;-82
2023/03/18 12:49:24;;;;;;;1.17;1.13;;;15.70;99.90;;;;;;4975189;28;20030;-83
2023/03/18 12:52:01;;;;;;;1.58;1.27;;;15.70;99.90;;;;;;4992723;28;20531;-83
2023/03/18 12:54:32;;;;;;;1.52;1.42;;;15.70;99.90;;;;;;4990488;28;20026;-84
2023/03/18 12:57:15;;;;;;;2.20;1.35;;;15.80;99.90;;;;;;5011409;28;20500;-83